Time;durP1;ratioP1;P1;durP2;ratioP2;P2;SDS_P1;SDS_P2;PMS_P1;PMS_P2;Temp;Humidity;BMP_temperature;BMP_pressure;BME280_temperature;BME280_humidity;BME280_pressure;Samples;Min_cycle;Max_cycle;Signal;HPM_P1;HPM_P2
2022/03/26 00:00:36;;;;;;;115.25;53.65;;;;;;;;;;5054935;28;20548;-64
2022/03/26 00:03:03;;;;;;;130.48;60.53;;;;;;;;;;5072624;28;20039;-64
2022/03/26 00:05:29;;;;;;;153.80;64.15;;;;;;;;;;5073207;28;20077;-64
2022/03/26 00:07:55;;;;;;;133.85;59.42;;;;;;;;;;5059014;28;20079;-65
2022/03/26 00:10:22;;;;;;;131.85;61.83;;;;;;;;;;5058952;28;20115;-65
2022/03/26 00:12:50;;;;;;;123.53;59.53;;;;;;;;;;5058887;28;20028;-64
2022/03/26 00:15:16;;;;;;;139.95;60.92;;;;;;;;;;5076840;28;20178;-64
2022/03/26 00:17:42;;;;;;;155.48;65.72;;;;;;;;;;5058905;28;20119;-64
2022/03/26 00:20:09;;;;;;;131.07;59.22;;;;;;;;;;5076793;28;20029;-64
2022/03/26 00:22:35;;;;;;;131.90;59.30;;;;;;;;;;5076787;28;20036;-64
2022/03/26 00:25:02;;;;;;;112.68;53.55;;;;;;;;;;5076727;28;20024;-64
2022/03/26 00:27:28;;;;;;;122.68;56.72;;;;;;;;;;5076311;28;20485;-65
2022/03/26 00:29:54;;;;;;;111.10;53.15;;;;;;;;;;5076592;28;20029;-64
2022/03/26 00:32:23;;;;;;;115.22;53.90;;;;;;;;;;5076564;28;20032;-65
2022/03/26 00:34:49;;;;;;;112.47;51.40;;;;;;;;;;5076188;28;20028;-64
2022/03/26 00:37:16;;;;;;;105.07;47.95;;;;;;;;;;5076472;28;20028;-64
2022/03/26 00:39:42;;;;;;;111.03;53.10;;;;;;;;;;5058380;28;20024;-64
2022/03/26 00:42:09;;;;;;;106.60;52.28;;;;;;;;;;5076420;28;20147;-64
2022/03/26 00:44:39;;;;;;;110.20;53.50;;;;;;;;;;5037934;28;20152;-65
2022/03/26 00:47:06;;;;;;;122.28;52.50;;;;;;;;;;5034939;28;20118;-64
2022/03/26 00:49:32;;;;;;;109.25;55.70;;;;;;;;;;5036298;28;20064;-64
2022/03/26 00:51:58;;;;;;;109.82;51.78;;;;;;;;;;5035974;28;20477;-64
2022/03/26 00:54:24;;;;;;;113.72;52.95;;;;;;;;;;5036196;28;20064;-64
2022/03/26 00:56:51;;;;;;;97.80;47.00;;;;;;;;;;5036142;28;20109;-64
2022/03/26 00:59:17;;;;;;;112.32;50.05;;;;;;;;;;5036342;28;20029;-63
2022/03/26 01:01:44;;;;;;;119.13;49.80;;;;;;;;;;5036050;28;20033;-64
2022/03/26 01:04:10;;;;;;;79.80;41.30;;;;;;;;;;5034747;28;20079;-64
2022/03/26 01:06:36;;;;;;;82.13;39.17;;;;;;;;;;5034571;28;20021;-64
2022/03/26 01:09:03;;;;;;;80.00;39.53;;;;;;;;;;5035888;28;20017;-64
2022/03/26 01:11:29;;;;;;;86.85;42.53;;;;;;;;;;5036157;28;20036;-64
2022/03/26 01:13:56;;;;;;;85.75;42.03;;;;;;;;;;5035778;28;20029;-64
2022/03/26 01:16:23;;;;;;;71.32;36.42;;;;;;;;;;5035795;28;20053;-64
2022/03/26 01:18:50;;;;;;;61.22;30.42;;;;;;;;;;5034639;28;20029;-64
2022/03/26 01:21:17;;;;;;;58.63;29.45;;;;;;;;;;5035689;28;20030;-64
2022/03/26 01:23:44;;;;;;;67.80;34.28;;;;;;;;;;5035358;28;20393;-63
2022/03/26 01:26:10;;;;;;;69.57;34.53;;;;;;;;;;5035628;28;20091;-63
2022/03/26 01:28:37;;;;;;;73.50;35.80;;;;;;;;;;5035527;28;20116;-64
2022/03/26 01:31:08;;;;;;;70.63;34.85;;;;;;;;;;5034215;28;20482;-63
2022/03/26 01:33:34;;;;;;;67.47;33.03;;;;;;;;;;5035448;28;20025;-65
2022/03/26 01:36:00;;;;;;;67.63;33.78;;;;;;;;;;5034195;28;20464;-63
2022/03/26 01:38:27;;;;;;;81.88;36.97;;;;;;;;;;5035396;28;20029;-64
2022/03/26 01:40:53;;;;;;;83.45;38.03;;;;;;;;;;5035404;28;20416;-63
2022/03/26 01:43:19;;;;;;;84.88;40.40;;;;;;;;;;5047419;28;20044;-64
2022/03/26 01:45:45;;;;;;;82.90;40.45;;;;;;;;;;5075439;28;20028;-63
2022/03/26 01:48:11;;;;;;;91.30;44.08;;;;;;;;;;5075265;28;20037;-64
2022/03/26 01:50:40;;;;;;;108.13;45.17;;;;;;;;;;5075090;28;20028;-64
2022/03/26 01:53:07;;;;;;;96.25;46.20;;;;;;;;;;5075056;28;20460;-63
2022/03/26 01:55:33;;;;;;;98.10;44.33;;;;;;;;;;5056679;28;20075;-64
2022/03/26 01:58:00;;;;;;;103.72;44.53;;;;;;;;;;5075034;28;20090;-65
2022/03/26 02:00:26;;;;;;;99.05;46.28;;;;;;;;;;5056679;28;20036;-65
2022/03/26 02:02:52;;;;;;;92.22;44.08;;;;;;;;;;5074881;28;20031;-64
2022/03/26 02:05:20;;;;;;;98.90;44.42;;;;;;;;;;5056848;28;20031;-65
2022/03/26 02:07:48;;;;;;;101.22;45.92;;;;;;;;;;5074740;28;20025;-66
2022/03/26 02:10:18;;;;;;;98.25;46.85;;;;;;;;;;5074705;28;20029;-66
2022/03/26 02:12:47;;;;;;;96.38;47.00;;;;;;;;;;5074693;28;20021;-65
2022/03/26 02:15:14;;;;;;;93.93;45.78;;;;;;;;;;5074684;28;20033;-65
2022/03/26 02:17:40;;;;;;;85.68;40.20;;;;;;;;;;5056693;28;20033;-66
2022/03/26 02:20:07;;;;;;;77.90;39.10;;;;;;;;;;5074525;28;20025;-65
2022/03/26 02:22:33;;;;;;;72.40;38.80;;;;;;;;;;5074527;28;20033;-65
2022/03/26 02:25:00;;;;;;;78.97;38.72;;;;;;;;;;5074680;28;20025;-64
2022/03/26 02:27:27;;;;;;;83.30;39.78;;;;;;;;;;5074369;28;20041;-65
2022/03/26 02:29:53;;;;;;;76.32;38.40;;;;;;;;;;5074075;28;20028;-63
2022/03/26 02:32:23;;;;;;;78.82;42.05;;;;;;;;;;5074282;28;20111;-63
2022/03/26 02:34:51;;;;;;;77.93;40.00;;;;;;;;;;5056340;28;20024;-63
2022/03/26 02:37:17;;;;;;;94.75;41.25;;;;;;;;;;5074242;28;20067;-63
2022/03/26 02:39:43;;;;;;;88.55;42.75;;;;;;;;;;5074075;28;20039;-64
2022/03/26 02:42:10;;;;;;;94.93;42.60;;;;;;;;;;5074134;28;20085;-63
2022/03/26 02:44:36;;;;;;;82.57;42.20;;;;;;;;;;5055663;28;20048;-63
2022/03/26 02:47:03;;;;;;;78.50;39.10;;;;;;;;;;5073914;28;20043;-63
2022/03/26 02:49:29;;;;;;;76.82;41.17;;;;;;;;;;5073986;28;20060;-64
2022/03/26 02:51:55;;;;;;;77.55;41.63;;;;;;;;;;5055939;28;20025;-63
2022/03/26 02:54:22;;;;;;;80.05;39.63;;;;;;;;;;5073853;28;20055;-63
2022/03/26 02:56:49;;;;;;;86.85;40.78;;;;;;;;;;5073512;28;20020;-64
2022/03/26 02:59:15;;;;;;;89.53;44.08;;;;;;;;;;5073377;28;20031;-63
2022/03/26 03:01:41;;;;;;;89.53;42.90;;;;;;;;;;5055734;28;20536;-63
2022/03/26 03:04:08;;;;;;;90.20;42.95;;;;;;;;;;5073658;28;20032;-63
2022/03/26 03:06:34;;;;;;;92.50;42.92;;;;;;;;;;5073550;28;20029;-63
2022/03/26 03:09:01;;;;;;;98.60;45.13;;;;;;;;;;5073582;28;20028;-64
2022/03/26 03:11:27;;;;;;;90.13;43.08;;;;;;;;;;5073252;28;20469;-63
2022/03/26 03:13:53;;;;;;;95.68;44.33;;;;;;;;;;5055480;28;20035;-64
2022/03/26 03:16:20;;;;;;;111.35;47.58;;;;;;;;;;5073461;28;20049;-63
2022/03/26 03:18:46;;;;;;;87.00;42.45;;;;;;;;;;5073414;28;20491;-64
2022/03/26 03:21:12;;;;;;;94.78;44.20;;;;;;;;;;5055449;28;20105;-64
2022/03/26 03:23:38;;;;;;;88.15;43.42;;;;;;;;;;5055413;28;20037;-63
2022/03/26 03:26:05;;;;;;;93.32;45.42;;;;;;;;;;5073623;28;20499;-64
2022/03/26 03:28:31;;;;;;;88.43;46.00;;;;;;;;;;5073299;28;20036;-63
2022/03/26 03:30:57;;;;;;;94.40;44.63;;;;;;;;;;5055246;28;20024;-64
2022/03/26 03:33:24;;;;;;;102.63;45.88;;;;;;;;;;5072977;28;20031;-65
2022/03/26 03:35:51;;;;;;;97.40;45.15;;;;;;;;;;5055228;28;20464;-63
2022/03/26 03:38:17;;;;;;;101.65;46.90;;;;;;;;;;5073166;28;20108;-63
2022/03/26 03:40:43;;;;;;;96.35;46.13;;;;;;;;;;5072487;28;20024;-64
2022/03/26 03:43:10;;;;;;;95.30;46.70;;;;;;;;;;5072841;28;20171;-64
2022/03/26 03:45:36;;;;;;;95.60;47.25;;;;;;;;;;5073085;28;20024;-64
2022/03/26 03:48:02;;;;;;;98.97;44.05;;;;;;;;;;5073047;28;20045;-64
2022/03/26 03:50:29;;;;;;;94.47;44.65;;;;;;;;;;5055033;28;20077;-64
2022/03/26 03:52:55;;;;;;;90.53;42.58;;;;;;;;;;5073293;28;20111;-64
2022/03/26 03:55:21;;;;;;;94.30;41.63;;;;;;;;;;5073009;28;20108;-64
2022/03/26 03:57:47;;;;;;;82.35;39.92;;;;;;;;;;5072624;28;20033;-64
2022/03/26 04:00:15;;;;;;;89.38;40.75;;;;;;;;;;5072921;28;20028;-65
2022/03/26 04:02:42;;;;;;;98.53;42.00;;;;;;;;;;5054911;28;20028;-65
2022/03/26 04:05:09;;;;;;;112.97;42.25;;;;;;;;;;5072950;28;20364;-64
2022/03/26 04:07:37;;;;;;;88.40;40.38;;;;;;;;;;5072812;28;20079;-65
2022/03/26 04:10:04;;;;;;;87.47;40.47;;;;;;;;;;5072957;28;20016;-64
2022/03/26 04:12:30;;;;;;;88.43;41.55;;;;;;;;;;5072859;28;20029;-65
2022/03/26 04:14:57;;;;;;;92.07;40.45;;;;;;;;;;5073110;28;20132;-65
2022/03/26 04:17:23;;;;;;;96.25;43.60;;;;;;;;;;5072803;28;20119;-65
2022/03/26 04:19:49;;;;;;;89.32;37.25;;;;;;;;;;5073064;28;20047;-65
2022/03/26 04:22:15;;;;;;;95.60;39.28;;;;;;;;;;5072740;28;20024;-65
2022/03/26 04:24:42;;;;;;;92.07;40.35;;;;;;;;;;5072706;28;20067;-65
2022/03/26 04:27:08;;;;;;;78.47;34.72;;;;;;;;;;5072313;28;20083;-65
2022/03/26 04:29:34;;;;;;;66.22;31.55;;;;;;;;;;5072691;28;20063;-65
2022/03/26 04:32:00;;;;;;;71.82;35.83;;;;;;;;;;5054610;28;20024;-65
2022/03/26 04:34:27;;;;;;;65.72;29.85;;;;;;;;;;5072628;28;20024;-66
2022/03/26 04:36:53;;;;;;;76.30;32.00;;;;;;;;;;5072537;28;20049;-65
2022/03/26 04:39:19;;;;;;;68.63;29.67;;;;;;;;;;5054627;28;20119;-65
2022/03/26 04:41:47;;;;;;;66.80;30.83;;;;;;;;;;5072532;28;20028;-64
2022/03/26 04:44:13;;;;;;;67.97;29.75;;;;;;;;;;5037276;28;20080;-66
2022/03/26 04:46:39;;;;;;;65.80;27.88;;;;;;;;;;5032532;28;20033;-66
2022/03/26 04:49:06;;;;;;;58.47;27.48;;;;;;;;;;5032542;28;20037;-65
2022/03/26 04:51:32;;;;;;;69.28;28.13;;;;;;;;;;5032896;28;20532;-65
2022/03/26 04:53:58;;;;;;;70.22;30.75;;;;;;;;;;5036223;28;20026;-65
2022/03/26 04:56:25;;;;;;;72.72;38.70;;;;;;;;;;5036229;28;20037;-66
2022/03/26 04:58:53;;;;;;;60.03;30.80;;;;;;;;;;5036438;28;20025;-66
2022/03/26 05:01:19;;;;;;;60.83;29.52;;;;;;;;;;5034811;28;20113;-66
2022/03/26 05:03:45;;;;;;;64.75;28.50;;;;;;;;;;5036037;28;20040;-64
2022/03/26 05:06:11;;;;;;;80.00;32.40;;;;;;;;;;5034715;28;20033;-64
2022/03/26 05:08:37;;;;;;;68.35;30.50;;;;;;;;;;5035901;28;20074;-64
2022/03/26 05:11:05;;;;;;;60.30;27.65;;;;;;;;;;5035830;28;20040;-65
2022/03/26 05:13:31;;;;;;;71.00;29.70;;;;;;;;;;5035874;28;20026;-66
2022/03/26 05:15:57;;;;;;;72.43;28.38;;;;;;;;;;5035777;28;20028;-66
2022/03/26 05:18:24;;;;;;;77.05;31.95;;;;;;;;;;5034448;28;20370;-64
2022/03/26 05:20:50;;;;;;;67.18;29.40;;;;;;;;;;5035786;28;20030;-65
2022/03/26 05:23:17;;;;;;;67.65;29.88;;;;;;;;;;5035625;28;20112;-64
2022/03/26 05:25:43;;;;;;;73.80;29.10;;;;;;;;;;5034319;28;20113;-64
2022/03/26 05:28:09;;;;;;;64.50;28.35;;;;;;;;;;5034207;28;20044;-65
2022/03/26 05:30:36;;;;;;;68.80;28.10;;;;;;;;;;5035593;28;20231;-64
2022/03/26 05:33:14;;;;;;;74.07;31.42;;;;;;;;;;5035461;28;20026;-63
2022/03/26 05:35:40;;;;;;;93.07;31.55;;;;;;;;;;5035393;28;20474;-64
2022/03/26 05:38:07;;;;;;;112.10;31.27;;;;;;;;;;5035378;28;20032;-63
2022/03/26 05:40:33;;;;;;;84.78;31.15;;;;;;;;;;5035653;28;20033;-63
2022/03/26 05:42:59;;;;;;;79.10;31.23;;;;;;;;;;5049694;28;20058;-64
2022/03/26 05:45:25;;;;;;;85.53;34.47;;;;;;;;;;5077389;28;20029;-63
2022/03/26 05:47:56;;;;;;;103.85;42.30;;;;;;;;;;5077113;28;20036;-64
2022/03/26 05:50:22;;;;;;;127.17;53.80;;;;;;;;;;5077279;28;20020;-64
2022/03/26 05:52:49;;;;;;;133.05;53.65;;;;;;;;;;5095217;28;20047;-63
2022/03/26 05:55:16;;;;;;;147.43;55.78;;;;;;;;;;5095271;28;20035;-63
2022/03/26 05:57:42;;;;;;;133.50;52.25;;;;;;;;;;5095226;28;20460;-64
2022/03/26 06:00:10;;;;;;;142.38;57.75;;;;;;;;;;5077055;28;20112;-63
2022/03/26 06:02:37;;;;;;;141.18;55.97;;;;;;;;;;5095186;28;20164;-64
2022/03/26 06:05:04;;;;;;;108.90;42.88;;;;;;;;;;5094473;28;20028;-64
2022/03/26 06:07:30;;;;;;;94.82;39.22;;;;;;;;;;5095002;28;20089;-64
2022/03/26 06:09:57;;;;;;;93.65;38.28;;;;;;;;;;5094763;28;20093;-64
2022/03/26 06:12:23;;;;;;;115.97;46.25;;;;;;;;;;5094916;28;20472;-64
2022/03/26 06:14:49;;;;;;;113.18;42.03;;;;;;;;;;5094833;28;20070;-64
2022/03/26 06:17:16;;;;;;;68.18;30.38;;;;;;;;;;5094774;28;20526;-64
2022/03/26 06:19:42;;;;;;;53.42;24.65;;;;;;;;;;5094854;28;20027;-64
2022/03/26 06:22:08;;;;;;;56.78;25.15;;;;;;;;;;5094740;28;20098;-63
2022/03/26 06:24:35;;;;;;;50.05;23.10;;;;;;;;;;5094676;28;20106;-64
2022/03/26 06:27:05;;;;;;;49.92;22.58;;;;;;;;;;5094802;28;20039;-65
2022/03/26 06:29:33;;;;;;;43.13;22.60;;;;;;;;;;5094669;28;20028;-65
2022/03/26 06:32:01;;;;;;;42.70;24.30;;;;;;;;;;5094569;28;20032;-64
2022/03/26 06:34:28;;;;;;;51.72;23.58;;;;;;;;;;5094510;28;20112;-65
2022/03/26 06:36:55;;;;;;;51.63;24.70;;;;;;;;;;5076277;28;20464;-64
2022/03/26 06:39:21;;;;;;;50.20;25.02;;;;;;;;;;5094429;28;20028;-65
2022/03/26 06:41:48;;;;;;;60.15;31.83;;;;;;;;;;5076083;28;20427;-64
2022/03/26 06:44:14;;;;;;;57.33;29.02;;;;;;;;;;5094286;28;20577;-65
2022/03/26 06:46:41;;;;;;;49.70;25.48;;;;;;;;;;5094337;28;20456;-64
2022/03/26 06:49:07;;;;;;;44.15;25.45;;;;;;;;;;5094132;28;20036;-65
2022/03/26 06:51:34;;;;;;;56.72;27.02;;;;;;;;;;5075944;28;20130;-66
2022/03/26 06:54:00;;;;;;;53.85;26.30;;;;;;;;;;5094082;28;20020;-66
2022/03/26 06:56:26;;;;;;;53.63;27.02;;;;;;;;;;5094334;28;20035;-65
2022/03/26 06:58:53;;;;;;;57.70;27.23;;;;;;;;;;5093650;28;20040;-63
2022/03/26 07:01:19;;;;;;;69.38;29.30;;;;;;;;;;5093351;28;20032;-64
2022/03/26 07:03:45;;;;;;;59.50;26.60;;;;;;;;;;5075504;28;20050;-65
2022/03/26 07:06:13;;;;;;;66.93;26.42;;;;;;;;;;5091566;28;20020;-65
2022/03/26 07:08:39;;;;;;;50.30;25.63;;;;;;;;;;5093016;28;20046;-64
2022/03/26 07:11:05;;;;;;;52.92;26.15;;;;;;;;;;5093116;28;20020;-64
2022/03/26 07:13:31;;;;;;;52.70;25.15;;;;;;;;;;5093328;28;20074;-65
2022/03/26 07:15:57;;;;;;;49.90;26.67;;;;;;;;;;5074054;28;20020;-65
2022/03/26 07:18:24;;;;;;;51.15;26.48;;;;;;;;;;5093688;28;20066;-65
2022/03/26 07:20:52;;;;;;;46.22;24.35;;;;;;;;;;5092710;28;20032;-64
2022/03/26 07:23:18;;;;;;;36.17;18.17;;;;;;;;;;5092905;28;20034;-66
2022/03/26 07:25:45;;;;;;;31.63;15.85;;;;;;;;;;5092745;28;20048;-67
2022/03/26 07:28:11;;;;;;;29.58;16.08;;;;;;;;;;5093006;28;20046;-68
2022/03/26 07:30:37;;;;;;;29.30;13.18;;;;;;;;;;5093372;28;20112;-67
2022/03/26 07:33:03;;;;;;;28.67;14.00;;;;;;;;;;5093051;28;20488;-66
2022/03/26 07:35:31;;;;;;;32.47;14.18;;;;;;;;;;5093535;28;20135;-65
2022/03/26 07:37:58;;;;;;;22.25;12.80;;;;;;;;;;5093312;28;20465;-66
2022/03/26 07:40:24;;;;;;;23.13;12.02;;;;;;;;;;5093113;28;20035;-67
2022/03/26 07:42:50;;;;;;;28.52;12.95;;;;;;;;;;5066851;28;20084;-67
2022/03/26 07:45:17;;;;;;;23.42;11.00;;;;;;;;;;5052895;28;20333;-67
2022/03/26 07:47:43;;;;;;;23.10;12.10;;;;;;;;;;5051560;28;20040;-65
2022/03/26 07:50:09;;;;;;;34.70;13.15;;;;;;;;;;5052928;28;20025;-66
2022/03/26 07:52:36;;;;;;;29.17;13.48;;;;;;;;;;5052791;28;20032;-65
2022/03/26 07:55:02;;;;;;;25.95;12.82;;;;;;;;;;5052808;28;20140;-66
2022/03/26 07:57:28;;;;;;;33.08;13.27;;;;;;;;;;5052795;28;20029;-64
2022/03/26 07:59:55;;;;;;;30.23;11.40;;;;;;;;;;5052703;28;20033;-65
2022/03/26 08:02:21;;;;;;;39.70;13.43;;;;;;;;;;5052494;28;20105;-65
2022/03/26 08:04:47;;;;;;;50.90;13.02;;;;;;;;;;5052700;28;20040;-66
2022/03/26 08:07:13;;;;;;;27.52;12.55;;;;;;;;;;5051336;28;20040;-66
2022/03/26 08:09:39;;;;;;;24.00;12.20;;;14.90;91.90;;;;;;5052660;28;20029;-65
2022/03/26 08:12:05;;;;;;;29.67;11.88;;;;;;;;;;5052662;28;20036;-66
2022/03/26 08:14:33;;;;;;;25.45;11.68;;;;;;;;;;5052501;28;20458;-67
2022/03/26 08:16:59;;;;;;;24.55;10.80;;;;;;;;;;5052644;28;20029;-65
2022/03/26 08:19:27;;;;;;;28.42;11.20;;;15.20;97.40;;;;;;5051876;28;20068;-66
2022/03/26 08:21:53;;;;;;;28.42;12.48;;;;;;;;;;5052221;28;20021;-66
2022/03/26 08:24:19;;;;;;;53.58;13.55;;;;;;;;;;5052297;28;20036;-67
2022/03/26 08:26:45;;;;;;;26.75;11.70;;;15.50;76.70;;;;;;5051198;28;20029;-65
2022/03/26 08:29:11;;;;;;;26.15;10.15;;;;;;;;;;5055084;28;20055;-67
2022/03/26 08:31:37;;;;;;;25.20;10.90;;;;;;;;;;5056460;28;20021;-65
2022/03/26 08:34:03;;;;;;;23.08;9.77;;;15.90;72.40;;;;;;5056352;28;20043;-69
2022/03/26 08:36:30;;;;;;;18.48;9.13;;;;;;;;;;5056752;28;20028;-67
2022/03/26 08:38:56;;;;;;;19.10;9.75;;;16.40;74.00;;;;;;5055449;28;20479;-66
2022/03/26 08:41:23;;;;;;;25.45;9.05;;;;;;;;;;5055528;28;20037;-68
2022/03/26 08:43:50;;;;;;;19.33;7.93;;;16.80;81.60;;;;;;5080874;28;20052;-66
2022/03/26 08:46:16;;;;;;;15.38;7.80;;;17.10;78.50;;;;;;5078155;28;20031;-66
2022/03/26 08:48:42;;;;;;;25.08;9.88;;;17.10;59.70;;;;;;5076524;28;20481;-64
2022/03/26 08:51:08;;;;;;;23.83;10.48;;;17.30;61.30;;;;;;5095715;28;20049;-67
2022/03/26 08:53:34;;;;;;;22.38;9.60;;;17.60;68.70;;;;;;5094902;28;20473;-67
2022/03/26 08:56:00;;;;;;;26.23;11.90;;;17.70;75.70;;;;;;5077498;28;20028;-66
2022/03/26 08:58:27;;;;;;;18.55;10.93;;;;;;;;;;5095288;28;20063;-66
2022/03/26 09:00:53;;;;;;;21.27;9.07;;;18.20;59.40;;;;;;5095971;28;20649;-68
2022/03/26 09:03:21;;;;;;;22.08;9.88;;;18.30;61.10;;;;;;5077481;28;20024;-67
2022/03/26 09:05:50;;;;;;;17.60;10.40;;;18.40;58.90;;;;;;5094485;28;20024;-66
2022/03/26 09:08:17;;;;;;;17.42;10.43;;;18.50;61.50;;;;;;5094074;28;20370;-67
2022/03/26 09:10:43;;;;;;;21.38;9.35;;;18.60;58.40;;;;;;5095644;28;20028;-67
2022/03/26 09:13:09;;;;;;;30.20;9.98;;;18.70;57.00;;;;;;5095902;28;20099;-67
2022/03/26 09:15:35;;;;;;;16.08;9.13;;;18.90;58.50;;;;;;5095873;28;20103;-67
2022/03/26 09:18:01;;;;;;;19.85;9.82;;;19.00;58.70;;;;;;5095718;28;20118;-67
2022/03/26 09:20:27;;;;;;;15.90;8.40;;;19.00;55.80;;;;;;5095459;28;20512;-68
2022/03/26 09:22:53;;;;;;;19.05;9.05;;;19.20;56.80;;;;;;5077206;28;20055;-67
2022/03/26 09:25:20;;;;;;;12.77;8.90;;;19.30;56.40;;;;;;5095443;28;20109;-67
2022/03/26 09:27:46;;;;;;;13.63;8.57;;;19.30;55.30;;;;;;5095533;28;20024;-67
2022/03/26 09:30:14;;;;;;;16.83;9.00;;;19.40;54.20;;;;;;5095631;28;20030;-67
2022/03/26 09:32:41;;;;;;;18.20;9.07;;;19.50;54.50;;;;;;5077404;28;20159;-68
2022/03/26 09:35:07;;;;;;;18.95;9.15;;;19.80;56.40;;;;;;5095465;28;20030;-68
2022/03/26 09:37:34;;;;;;;16.90;8.77;;;19.90;52.70;;;;;;5095466;28;20067;-70
2022/03/26 09:40:02;;;;;;;17.58;8.65;;;20.00;53.50;;;;;;5094772;28;20036;-69
2022/03/26 09:42:28;;;;;;;36.40;9.68;;;20.10;52.10;;;;;;5094607;28;20421;-69
2022/03/26 09:44:56;;;;;;;24.65;8.57;;;20.30;53.90;;;;;;5077233;28;20113;-70
2022/03/26 09:47:22;;;;;;;13.98;7.93;;;;;;;;;;5095015;28;20148;-68
2022/03/26 09:49:49;;;;;;;19.95;8.90;;;20.50;52.40;;;;;;5077194;28;20116;-69
2022/03/26 09:52:15;;;;;;;16.00;8.18;;;20.50;52.60;;;;;;5095271;28;20448;-68
2022/03/26 09:54:41;;;;;;;14.90;7.80;;;20.50;50.80;;;;;;5095549;28;20380;-68
2022/03/26 09:57:08;;;;;;;22.80;8.90;;;;;;;;;;5095085;28;20034;-70
2022/03/26 09:59:35;;;;;;;18.65;8.07;;;;;;;;;;5095116;28;20107;-70
2022/03/26 10:02:02;;;;;;;16.75;8.15;;;;;;;;;;5095278;28;20055;-69
2022/03/26 10:04:39;;;;;;;20.08;8.45;;;;;;;;;;5095073;28;20425;-71
2022/03/26 10:07:04;;;;;;;20.92;9.63;;;20.60;53.80;;;;;;5094824;28;20024;-69
2022/03/26 10:09:41;;;;;;;18.42;9.55;;;21.30;51.80;;;;;;5094819;28;20467;-69
2022/03/26 10:12:13;;;;;;;17.33;10.00;;;21.70;49.10;;;;;;5093509;28;20531;-69
2022/03/26 10:14:47;;;;;;;19.45;8.85;;;;;;;;;;5094789;28;20024;-69
2022/03/26 10:17:18;;;;;;;18.33;9.20;;;;;;;;;;5094786;28;20020;-70
2022/03/26 10:19:46;;;;;;;18.75;8.77;;;22.00;50.00;;;;;;5094714;28;20032;-70
2022/03/26 10:22:23;;;;;;;14.93;8.63;;;22.00;49.10;;;;;;5094426;28;20103;-70
2022/03/26 10:24:49;;;;;;;14.68;8.40;;;22.00;50.00;;;;;;5094681;28;20023;-70
2022/03/26 10:27:16;;;;;;;16.15;8.02;;;22.20;47.50;;;;;;5094540;28;20020;-71
2022/03/26 10:29:55;;;;;;;23.42;9.20;;;22.60;51.00;;;;;;5094483;28;20032;-70
2022/03/26 10:32:39;;;;;;;16.42;8.27;;;22.90;47.70;;;;;;5094457;28;20110;-68
2022/03/26 10:35:27;;;;;;;15.05;7.65;;;23.40;49.50;;;;;;5094454;28;20028;-70
2022/03/26 10:37:58;;;;;;;11.60;7.45;;;;;;;;;;5094416;28;20042;-69
2022/03/26 10:40:26;;;;;;;17.58;7.53;;;23.60;47.80;;;;;;5094439;28;20046;-70
2022/03/26 10:43:01;;;;;;;11.25;6.88;;;25.40;44.80;;;;;;5094267;28;20059;-70
2022/03/26 10:45:28;;;;;;;22.15;7.53;;;;;;;;;;5094267;28;20032;-69
2022/03/26 10:47:59;;;;;;;14.70;6.50;;;25.30;45.90;;;;;;5093876;28;20024;-70
2022/03/26 10:50:27;;;;;;;34.50;7.72;;;26.10;44.40;;;;;;5094010;28;20039;-69
2022/03/26 10:52:56;;;;;;;13.35;6.35;;;25.50;42.10;;;;;;5075920;28;20025;-70
2022/03/26 10:55:23;;;;;;;16.60;7.68;;;26.50;42.40;;;;;;5093697;28;20458;-70
2022/03/26 10:57:50;;;;;;;10.45;6.82;;;27.10;41.60;;;;;;5093893;28;20081;-70
2022/03/26 11:00:18;;;;;;;14.85;7.32;;;27.20;43.00;;;;;;5093863;28;20081;-69
2022/03/26 11:02:45;;;;;;;14.27;8.07;;;28.10;39.40;;;;;;5093800;28;20115;-69
2022/03/26 11:05:12;;;;;;;12.57;7.32;;;;;;;;;;5075454;28;20077;-69
2022/03/26 11:07:43;;;;;;;15.45;6.72;;;27.80;39.50;;;;;;5075395;28;20032;-70
2022/03/26 11:10:11;;;;;;;15.05;7.18;;;;;;;;;;5075607;28;20028;-70
2022/03/26 11:12:41;;;;;;;12.68;7.05;;;;;;;;;;5093673;28;20476;-70
2022/03/26 11:15:11;;;;;;;14.83;7.40;;;29.50;38.90;;;;;;5093704;28;20102;-70
2022/03/26 11:18:15;;;;;;;11.07;6.63;;;31.10;35.80;;;;;;5093593;28;20043;-69
2022/03/26 11:21:10;;;;;;;11.52;6.75;;;32.20;36.20;;;;;;5092990;28;20036;-69
2022/03/26 11:24:04;;;;;;;11.40;6.10;;;32.30;35.90;;;;;;5093585;28;20369;-70
2022/03/26 11:26:36;;;;;;;8.30;5.78;;;33.30;36.30;;;;;;5093507;28;20020;-71
2022/03/26 11:29:16;;;;;;;13.32;6.47;;;33.80;41.40;;;;;;5075242;28;20035;-71
2022/03/26 11:32:06;;;;;;;12.20;8.57;;;33.60;35.50;;;;;;5093477;28;20362;-70
2022/03/26 11:34:36;;;;;;;12.98;7.55;;;33.50;34.70;;;;;;5093341;28;20370;-70
2022/03/26 11:37:29;;;;;;;12.30;9.73;;;;;;;;;;5093323;28;20024;-69
2022/03/26 11:39:58;;;;;;;14.13;5.97;;;33.70;33.90;;;;;;5070630;28;20035;-70
2022/03/26 11:42:33;;;;;;;10.48;6.80;;;;;;;;;;5093091;28;20031;-71
2022/03/26 11:51:24;;;;;;;10.77;6.00;;;;;;;;;;5093046;28;20036;-70
2022/03/26 11:54:05;;;;;;;12.63;5.65;;;;;;;;;;5071979;28;20043;-70
2022/03/26 11:56:32;;;;;;;13.43;8.82;;;33.30;69.90;;;;;;5093210;28;20020;-71
2022/03/26 11:59:16;;;;;;;17.65;15.75;;;32.20;33.90;;;;;;5074831;28;20472;-69
2022/03/26 12:01:47;;;;;;;10.48;6.75;;;33.40;33.70;;;;;;5092530;28;20020;-69
2022/03/26 12:04:18;;;;;;;8.15;5.95;;;34.80;62.70;;;;;;5093062;28;20074;-69
2022/03/26 12:06:55;;;;;;;11.15;5.35;;;34.80;32.60;;;;;;5092924;28;20028;-69
2022/03/26 12:09:37;;;;;;;11.98;5.53;;;33.50;32.50;;;;;;5093266;28;20090;-69
2022/03/26 12:12:10;;;;;;;11.00;5.03;;;34.00;32.60;;;;;;5092976;28;20036;-69
2022/03/26 12:15:10;;;;;;;9.80;5.05;;;33.20;32.40;;;;;;5092955;28;20035;-73
2022/03/26 12:18:07;;;;;;;8.68;4.72;;;32.80;31.80;;;;;;5084856;28;20051;-69
2022/03/26 12:20:38;;;;;;;13.20;5.13;;;34.10;32.90;;;;;;5092948;28;20107;-70
2022/03/26 12:23:28;;;;;;;7.07;4.72;;;33.50;32.60;;;;;;5074713;28;20365;-71
2022/03/26 12:26:00;;;;;;;8.13;4.50;;;32.50;32.20;;;;;;5092851;28;20540;-69
2022/03/26 12:28:26;;;;;;;11.35;4.65;;;34.20;32.40;;;;;;5074727;28;20373;-70
2022/03/26 12:30:55;;;;;;;8.90;5.05;;;34.50;32.30;;;;;;5092609;28;20082;-69
2022/03/26 12:33:23;;;;;;;8.98;5.40;;;34.90;31.80;;;;;;5092690;28;20024;-70
2022/03/26 12:35:51;;;;;;;10.10;4.40;;;35.40;32.30;;;;;;5092766;28;20024;-70
2022/03/26 12:38:18;;;;;;;9.48;4.15;;;34.90;31.20;;;;;;5093035;28;20471;-70
2022/03/26 12:40:53;;;;;;;11.55;3.60;;;35.70;31.70;;;;;;5092695;28;20085;-69
2022/03/26 12:43:19;;;;;;;6.85;3.33;;;34.10;30.60;;;;;;5092609;28;20048;-69
2022/03/26 12:45:45;;;;;;;10.38;3.30;;;34.40;30.90;;;;;;5092633;28;20055;-69
2022/03/26 12:48:13;;;;;;;9.60;3.13;;;35.20;30.80;;;;;;5092538;28;20080;-70
2022/03/26 12:50:41;;;;;;;7.68;3.35;;;34.60;30.40;;;;;;5092556;28;20036;-70
2022/03/26 12:53:14;;;;;;;14.13;4.15;;;36.30;30.20;;;;;;5092587;28;20031;-70
2022/03/26 12:55:41;;;;;;;9.27;3.90;;;37.00;35.70;;;;;;5092880;28;20410;-70
2022/03/26 13:01:11;;;;;;;10.70;3.90;;;36.70;29.50;;;;;;5092279;28;20446;-69
2022/03/26 13:03:37;;;;;;;8.25;3.55;;;37.70;30.00;;;;;;5092356;28;20407;-70
2022/03/26 13:06:05;;;;;;;10.23;3.50;;;38.00;29.60;;;;;;5092378;28;20032;-70
2022/03/26 13:08:31;;;;;;;8.10;3.20;;;38.20;29.90;;;;;;5092263;28;20116;-70
2022/03/26 13:11:07;;;;;;;7.68;3.38;;;37.40;29.70;;;;;;5092372;28;20099;-70
2022/03/26 13:13:41;;;;;;;6.63;3.40;;;35.90;29.00;;;;;;5092841;28;20028;-68
2022/03/26 13:16:13;;;;;;;8.80;4.15;;;37.10;29.70;;;;;;5077788;28;20027;-69
2022/03/26 13:18:46;;;;;;;8.90;3.92;;;36.50;30.00;;;;;;5096188;28;20033;-69
2022/03/26 13:21:14;;;;;;;9.45;4.07;;;36.30;29.60;;;;;;5095994;28;20028;-70
2022/03/26 13:23:53;;;;;;;11.60;3.97;;;37.00;30.40;;;;;;5095949;28;20032;-70
2022/03/26 13:26:19;;;;;;;9.60;4.03;;;37.90;29.60;;;;;;5077680;28;20115;-70
2022/03/26 13:28:44;;;;;;;9.23;4.18;;;36.90;29.90;;;;;;5095682;28;20064;-70
2022/03/26 13:31:19;;;;;;;8.07;4.10;;;35.80;29.50;;;;;;5095683;28;20396;-69
2022/03/26 13:33:44;;;;;;;7.45;4.18;;;36.00;30.40;;;;;;5095745;28;20031;-70
2022/03/26 13:36:10;;;;;;;7.03;4.32;;;37.00;29.60;;;;;;5095601;28;20036;-69
2022/03/26 13:38:39;;;;;;;10.38;4.47;;;35.40;30.40;;;;;;5095793;28;20032;-69
2022/03/26 13:41:24;;;;;;;9.88;4.20;;;35.10;30.00;;;;;;5095556;28;20115;-69
2022/03/26 13:43:52;;;;;;;6.35;4.18;;;36.30;30.30;;;;;;5095086;28;20401;-70
2022/03/26 13:46:18;;;;;;;14.43;4.32;;;35.30;29.80;;;;;;5095287;28;20024;-69
2022/03/26 13:48:56;;;;;;;10.18;4.00;;;36.90;29.80;;;;;;5077025;28;20105;-71
2022/03/26 13:51:31;;;;;;;5.75;3.38;;;38.40;29.90;;;;;;5095047;28;20036;-70
2022/03/26 13:54:03;;;;;;;11.82;3.92;;;38.50;29.40;;;;;;5095263;28;20024;-70
2022/03/26 13:56:32;;;;;;;9.13;4.32;;;39.40;29.30;;;;;;5095152;28;20098;-69